sensor_id;sensor_type;location;lat;lon;timestamp;P1;durP1;ratioP1;P2;durP2;ratioP2
22026;SDS011;11177;50.966;10.070;2023-03-02T00:01:07;13.30;;;7.00;;
22026;SDS011;11177;50.966;10.070;2023-03-02T00:03:35;13.65;;;7.88;;
22026;SDS011;11177;50.966;10.070;2023-03-02T00:06:02;14.77;;;7.63;;
22026;SDS011;11177;50.966;10.070;2023-03-02T00:08:29;14.90;;;7.88;;
22026;SDS011;11177;50.966;10.070;2023-03-02T00:10:57;13.65;;;7.25;;
22026;SDS011;11177;50.966;10.070;2023-03-02T00:13:24;18.23;;;7.88;;
22026;SDS011;11177;50.966;10.070;2023-03-02T00:15:51;13.82;;;7.45;;
22026;SDS011;11177;50.966;10.070;2023-03-02T00:18:17;13.98;;;7.50;;
22026;SDS011;11177;50.966;10.070;2023-03-02T00:20:44;14.60;;;7.60;;
22026;SDS011;11177;50.966;10.070;2023-03-02T00:23:11;13.80;;;7.57;;
22026;SDS011;11177;50.966;10.070;2023-03-02T00:25:39;15.15;;;7.95;;
22026;SDS011;11177;50.966;10.070;2023-03-02T00:28:05;16.88;;;7.60;;
22026;SDS011;11177;50.966;10.070;2023-03-02T00:30:32;13.95;;;7.78;;
22026;SDS011;11177;50.966;10.070;2023-03-02T00:32:59;17.40;;;8.27;;
22026;SDS011;11177;50.966;10.070;2023-03-02T00:35:25;12.52;;;7.10;;
22026;SDS011;11177;50.966;10.070;2023-03-02T00:37:52;12.05;;;7.28;;
22026;SDS011;11177;50.966;10.070;2023-03-02T00:40:19;17.58;;;8.20;;
22026;SDS011;11177;50.966;10.070;2023-03-02T00:42:45;17.20;;;9.38;;
22026;SDS011;11177;50.966;10.070;2023-03-02T00:45:12;19.27;;;9.73;;
22026;SDS011;11177;50.966;10.070;2023-03-02T00:47:39;15.77;;;8.15;;
22026;SDS011;11177;50.966;10.070;2023-03-02T00:50:08;13.93;;;8.25;;
22026;SDS011;11177;50.966;10.070;2023-03-02T00:52:35;14.82;;;7.75;;
22026;SDS011;11177;50.966;10.070;2023-03-02T00:55:02;13.77;;;7.65;;
22026;SDS011;11177;50.966;10.070;2023-03-02T00:57:29;14.65;;;7.75;;
22026;SDS011;11177;50.966;10.070;2023-03-02T00:59:55;15.07;;;8.13;;
22026;SDS011;11177;50.966;10.070;2023-03-02T01:02:22;15.85;;;8.05;;
22026;SDS011;11177;50.966;10.070;2023-03-02T01:04:49;18.15;;;7.40;;
22026;SDS011;11177;50.966;10.070;2023-03-02T01:07:19;14.43;;;7.95;;
22026;SDS011;11177;50.966;10.070;2023-03-02T01:09:46;11.27;;;6.90;;
22026;SDS011;11177;50.966;10.070;2023-03-02T01:12:14;16.27;;;7.95;;
22026;SDS011;11177;50.966;10.070;2023-03-02T01:14:42;19.42;;;9.05;;
22026;SDS011;11177;50.966;10.070;2023-03-02T01:17:10;16.65;;;8.40;;
22026;SDS011;11177;50.966;10.070;2023-03-02T01:19:37;14.63;;;7.72;;
22026;SDS011;11177;50.966;10.070;2023-03-02T01:22:04;15.52;;;7.55;;
22026;SDS011;11177;50.966;10.070;2023-03-02T01:24:31;16.98;;;8.32;;
22026;SDS011;11177;50.966;10.070;2023-03-02T01:26:59;13.27;;;7.38;;
22026;SDS011;11177;50.966;10.070;2023-03-02T01:29:26;14.65;;;7.45;;
22026;SDS011;11177;50.966;10.070;2023-03-02T01:31:52;16.05;;;8.32;;
22026;SDS011;11177;50.966;10.070;2023-03-02T01:34:19;16.70;;;7.70;;
22026;SDS011;11177;50.966;10.070;2023-03-02T01:36:46;14.02;;;7.75;;
22026;SDS011;11177;50.966;10.070;2023-03-02T01:39:13;14.90;;;7.50;;
22026;SDS011;11177;50.966;10.070;2023-03-02T01:41:43;13.50;;;7.57;;
22026;SDS011;11177;50.966;10.070;2023-03-02T01:46:59;15.38;;;7.43;;
22026;SDS011;11177;50.966;10.070;2023-03-02T01:49:27;13.93;;;7.40;;
22026;SDS011;11177;50.966;10.070;2023-03-02T01:51:55;14.45;;;7.63;;
22026;SDS011;11177;50.966;10.070;2023-03-02T01:54:21;13.38;;;7.15;;
22026;SDS011;11177;50.966;10.070;2023-03-02T01:56:49;15.52;;;7.95;;
22026;SDS011;11177;50.966;10.070;2023-03-02T01:59:19;13.82;;;7.38;;
22026;SDS011;11177;50.966;10.070;2023-03-02T02:01:51;11.95;;;7.28;;
22026;SDS011;11177;50.966;10.070;2023-03-02T02:04:21;14.48;;;7.45;;
22026;SDS011;11177;50.966;10.070;2023-03-02T02:07:02;14.55;;;8.18;;
22026;SDS011;11177;50.966;10.070;2023-03-02T02:09:31;14.18;;;7.78;;
22026;SDS011;11177;50.966;10.070;2023-03-02T02:12:10;15.93;;;7.82;;
22026;SDS011;11177;50.966;10.070;2023-03-02T02:14:39;13.15;;;7.03;;
22026;SDS011;11177;50.966;10.070;2023-03-02T02:17:06;16.63;;;7.25;;
22026;SDS011;11177;50.966;10.070;2023-03-02T02:19:37;13.13;;;7.20;;
22026;SDS011;11177;50.966;10.070;2023-03-02T02:22:09;13.80;;;6.97;;
22026;SDS011;11177;50.966;10.070;2023-03-02T02:24:38;14.80;;;7.47;;
22026;SDS011;11177;50.966;10.070;2023-03-02T02:27:09;14.90;;;7.50;;
22026;SDS011;11177;50.966;10.070;2023-03-02T02:29:37;15.40;;;7.72;;
22026;SDS011;11177;50.966;10.070;2023-03-02T02:32:12;12.52;;;7.13;;
22026;SDS011;11177;50.966;10.070;2023-03-02T02:34:46;13.98;;;7.15;;
22026;SDS011;11177;50.966;10.070;2023-03-02T02:40:04;14.85;;;7.32;;
22026;SDS011;11177;50.966;10.070;2023-03-02T02:42:36;15.80;;;7.70;;
22026;SDS011;11177;50.966;10.070;2023-03-02T02:45:05;12.13;;;6.82;;
22026;SDS011;11177;50.966;10.070;2023-03-02T02:47:40;15.73;;;7.35;;
22026;SDS011;11177;50.966;10.070;2023-03-02T02:50:08;15.73;;;8.00;;
22026;SDS011;11177;50.966;10.070;2023-03-02T02:52:42;15.73;;;8.13;;
22026;SDS011;11177;50.966;10.070;2023-03-02T02:55:12;14.93;;;7.60;;
22026;SDS011;11177;50.966;10.070;2023-03-02T02:57:41;12.57;;;7.28;;
22026;SDS011;11177;50.966;10.070;2023-03-02T03:00:09;15.85;;;7.82;;
22026;SDS011;11177;50.966;10.070;2023-03-02T03:02:40;14.32;;;8.18;;
22026;SDS011;11177;50.966;10.070;2023-03-02T03:05:13;16.17;;;7.70;;
22026;SDS011;11177;50.966;10.070;2023-03-02T03:07:40;13.68;;;7.50;;
22026;SDS011;11177;50.966;10.070;2023-03-02T03:10:13;15.75;;;7.97;;
22026;SDS011;11177;50.966;10.070;2023-03-02T03:12:41;16.02;;;8.38;;
22026;SDS011;11177;50.966;10.070;2023-03-02T03:15:09;17.15;;;8.23;;
22026;SDS011;11177;50.966;10.070;2023-03-02T03:17:36;14.48;;;8.13;;
22026;SDS011;11177;50.966;10.070;2023-03-02T03:20:03;16.33;;;8.88;;
22026;SDS011;11177;50.966;10.070;2023-03-02T03:22:36;13.17;;;7.60;;
22026;SDS011;11177;50.966;10.070;2023-03-02T03:25:04;14.93;;;7.97;;
22026;SDS011;11177;50.966;10.070;2023-03-02T03:27:31;14.07;;;7.70;;
22026;SDS011;11177;50.966;10.070;2023-03-02T03:29:58;14.77;;;8.05;;
22026;SDS011;11177;50.966;10.070;2023-03-02T03:32:27;15.77;;;7.90;;
22026;SDS011;11177;50.966;10.070;2023-03-02T03:34:54;16.63;;;7.90;;
22026;SDS011;11177;50.966;10.070;2023-03-02T03:37:21;16.50;;;8.05;;
22026;SDS011;11177;50.966;10.070;2023-03-02T03:39:47;14.73;;;7.80;;
22026;SDS011;11177;50.966;10.070;2023-03-02T03:42:14;14.90;;;8.07;;
22026;SDS011;11177;50.966;10.070;2023-03-02T03:44:41;14.75;;;8.15;;
22026;SDS011;11177;50.966;10.070;2023-03-02T03:47:08;15.95;;;8.25;;
22026;SDS011;11177;50.966;10.070;2023-03-02T03:49:34;14.30;;;8.07;;
22026;SDS011;11177;50.966;10.070;2023-03-02T03:52:01;16.65;;;8.45;;
22026;SDS011;11177;50.966;10.070;2023-03-02T03:54:29;15.30;;;7.78;;
22026;SDS011;11177;50.966;10.070;2023-03-02T03:56:56;15.85;;;8.77;;
22026;SDS011;11177;50.966;10.070;2023-03-02T03:59:23;14.73;;;7.63;;
22026;SDS011;11177;50.966;10.070;2023-03-02T04:01:52;17.20;;;8.25;;
22026;SDS011;11177;50.966;10.070;2023-03-02T04:04:25;16.77;;;8.48;;
22026;SDS011;11177;50.966;10.070;2023-03-02T04:06:56;13.80;;;7.68;;
22026;SDS011;11177;50.966;10.070;2023-03-02T04:09:23;16.55;;;8.50;;
22026;SDS011;11177;50.966;10.070;2023-03-02T04:11:51;17.23;;;8.77;;
22026;SDS011;11177;50.966;10.070;2023-03-02T04:14:20;18.40;;;9.00;;
22026;SDS011;11177;50.966;10.070;2023-03-02T04:16:47;26.40;;;12.77;;
22026;SDS011;11177;50.966;10.070;2023-03-02T04:19:13;19.75;;;9.48;;
22026;SDS011;11177;50.966;10.070;2023-03-02T04:21:44;18.67;;;8.80;;
22026;SDS011;11177;50.966;10.070;2023-03-02T04:24:13;18.73;;;9.88;;
22026;SDS011;11177;50.966;10.070;2023-03-02T04:26:41;22.58;;;11.82;;
22026;SDS011;11177;50.966;10.070;2023-03-02T04:29:08;21.85;;;10.65;;
22026;SDS011;11177;50.966;10.070;2023-03-02T04:31:35;18.80;;;8.90;;
22026;SDS011;11177;50.966;10.070;2023-03-02T04:34:02;15.82;;;8.65;;
22026;SDS011;11177;50.966;10.070;2023-03-02T04:36:30;20.05;;;9.93;;
22026;SDS011;11177;50.966;10.070;2023-03-02T04:38:58;19.77;;;9.75;;
22026;SDS011;11177;50.966;10.070;2023-03-02T04:41:25;21.38;;;10.60;;
22026;SDS011;11177;50.966;10.070;2023-03-02T04:43:52;22.05;;;10.95;;
22026;SDS011;11177;50.966;10.070;2023-03-02T04:46:19;19.58;;;10.20;;
22026;SDS011;11177;50.966;10.070;2023-03-02T04:48:48;20.92;;;10.25;;
22026;SDS011;11177;50.966;10.070;2023-03-02T04:51:19;23.35;;;10.55;;
22026;SDS011;11177;50.966;10.070;2023-03-02T04:53:50;19.35;;;10.10;;
22026;SDS011;11177;50.966;10.070;2023-03-02T04:56:18;19.08;;;10.10;;
22026;SDS011;11177;50.966;10.070;2023-03-02T04:58:44;20.00;;;9.88;;
22026;SDS011;11177;50.966;10.070;2023-03-02T05:01:12;20.38;;;10.00;;
22026;SDS011;11177;50.966;10.070;2023-03-02T05:03:39;20.35;;;9.80;;
22026;SDS011;11177;50.966;10.070;2023-03-02T05:06:06;19.60;;;9.90;;
22026;SDS011;11177;50.966;10.070;2023-03-02T05:08:34;18.83;;;9.15;;
22026;SDS011;11177;50.966;10.070;2023-03-02T05:11:01;19.55;;;8.93;;
22026;SDS011;11177;50.966;10.070;2023-03-02T05:13:28;18.05;;;8.90;;
22026;SDS011;11177;50.966;10.070;2023-03-02T05:15:55;15.13;;;8.80;;
22026;SDS011;11177;50.966;10.070;2023-03-02T05:18:23;18.48;;;8.93;;
22026;SDS011;11177;50.966;10.070;2023-03-02T05:20:51;15.70;;;8.57;;
22026;SDS011;11177;50.966;10.070;2023-03-02T05:23:19;16.30;;;9.02;;
22026;SDS011;11177;50.966;10.070;2023-03-02T05:25:51;17.88;;;9.10;;
22026;SDS011;11177;50.966;10.070;2023-03-02T05:28:20;15.85;;;8.70;;
22026;SDS011;11177;50.966;10.070;2023-03-02T05:30:48;20.85;;;10.23;;
22026;SDS011;11177;50.966;10.070;2023-03-02T05:33:15;17.52;;;9.40;;
22026;SDS011;11177;50.966;10.070;2023-03-02T05:35:43;17.45;;;8.82;;
22026;SDS011;11177;50.966;10.070;2023-03-02T05:38:10;16.40;;;9.02;;
22026;SDS011;11177;50.966;10.070;2023-03-02T05:40:37;18.13;;;9.20;;
22026;SDS011;11177;50.966;10.070;2023-03-02T05:43:04;17.83;;;8.70;;
22026;SDS011;11177;50.966;10.070;2023-03-02T05:45:35;20.65;;;9.32;;
22026;SDS011;11177;50.966;10.070;2023-03-02T05:48:03;17.73;;;9.23;;
22026;SDS011;11177;50.966;10.070;2023-03-02T05:50:31;17.67;;;9.07;;
22026;SDS011;11177;50.966;10.070;2023-03-02T05:52:58;19.20;;;9.27;;
22026;SDS011;11177;50.966;10.070;2023-03-02T05:55:27;19.23;;;9.45;;
22026;SDS011;11177;50.966;10.070;2023-03-02T05:57:55;19.85;;;10.07;;
22026;SDS011;11177;50.966;10.070;2023-03-02T06:00:21;18.90;;;9.73;;
22026;SDS011;11177;50.966;10.070;2023-03-02T06:02:49;20.92;;;9.85;;
22026;SDS011;11177;50.966;10.070;2023-03-02T06:05:17;19.38;;;9.43;;
22026;SDS011;11177;50.966;10.070;2023-03-02T06:07:45;20.25;;;9.52;;
22026;SDS011;11177;50.966;10.070;2023-03-02T06:10:12;21.80;;;10.20;;
22026;SDS011;11177;50.966;10.070;2023-03-02T06:12:39;21.15;;;10.32;;
22026;SDS011;11177;50.966;10.070;2023-03-02T06:15:07;23.15;;;10.25;;
22026;SDS011;11177;50.966;10.070;2023-03-02T06:17:34;26.73;;;13.13;;
22026;SDS011;11177;50.966;10.070;2023-03-02T06:20:01;27.70;;;12.77;;
22026;SDS011;11177;50.966;10.070;2023-03-02T06:22:30;25.42;;;13.02;;
22026;SDS011;11177;50.966;10.070;2023-03-02T06:24:57;26.20;;;12.45;;
22026;SDS011;11177;50.966;10.070;2023-03-02T06:27:23;26.23;;;12.40;;
22026;SDS011;11177;50.966;10.070;2023-03-02T06:29:50;29.65;;;13.10;;
22026;SDS011;11177;50.966;10.070;2023-03-02T06:32:16;27.40;;;12.85;;
22026;SDS011;11177;50.966;10.070;2023-03-02T06:34:51;24.67;;;11.43;;
22026;SDS011;11177;50.966;10.070;2023-03-02T06:37:18;23.33;;;11.98;;
22026;SDS011;11177;50.966;10.070;2023-03-02T06:39:44;24.80;;;11.48;;
22026;SDS011;11177;50.966;10.070;2023-03-02T06:42:14;20.08;;;10.48;;
22026;SDS011;11177;50.966;10.070;2023-03-02T06:44:44;18.70;;;10.38;;
22026;SDS011;11177;50.966;10.070;2023-03-02T06:47:11;19.88;;;9.95;;
22026;SDS011;11177;50.966;10.070;2023-03-02T06:49:38;20.00;;;9.52;;
22026;SDS011;11177;50.966;10.070;2023-03-02T06:52:04;21.10;;;10.27;;
22026;SDS011;11177;50.966;10.070;2023-03-02T06:54:32;22.48;;;10.90;;
22026;SDS011;11177;50.966;10.070;2023-03-02T06:56:59;21.98;;;10.70;;
22026;SDS011;11177;50.966;10.070;2023-03-02T06:59:26;19.63;;;9.65;;
22026;SDS011;11177;50.966;10.070;2023-03-02T07:01:52;19.25;;;9.10;;
22026;SDS011;11177;50.966;10.070;2023-03-02T07:04:19;20.55;;;10.02;;
22026;SDS011;11177;50.966;10.070;2023-03-02T07:06:46;19.70;;;8.98;;
22026;SDS011;11177;50.966;10.070;2023-03-02T07:09:13;19.42;;;9.82;;
22026;SDS011;11177;50.966;10.070;2023-03-02T07:11:40;20.00;;;10.13;;
22026;SDS011;11177;50.966;10.070;2023-03-02T07:14:06;18.88;;;9.35;;
22026;SDS011;11177;50.966;10.070;2023-03-02T07:16:34;19.58;;;9.15;;
22026;SDS011;11177;50.966;10.070;2023-03-02T07:19:01;18.90;;;9.35;;
22026;SDS011;11177;50.966;10.070;2023-03-02T07:21:27;21.63;;;9.48;;
22026;SDS011;11177;50.966;10.070;2023-03-02T07:23:54;23.75;;;9.07;;
22026;SDS011;11177;50.966;10.070;2023-03-02T07:26:21;17.77;;;9.18;;
22026;SDS011;11177;50.966;10.070;2023-03-02T07:28:47;21.30;;;10.80;;
22026;SDS011;11177;50.966;10.070;2023-03-02T07:31:14;25.30;;;10.45;;
22026;SDS011;11177;50.966;10.070;2023-03-02T07:33:41;20.88;;;10.20;;
22026;SDS011;11177;50.966;10.070;2023-03-02T07:36:07;17.75;;;10.02;;
22026;SDS011;11177;50.966;10.070;2023-03-02T07:38:35;18.17;;;9.23;;
22026;SDS011;11177;50.966;10.070;2023-03-02T07:41:05;19.00;;;9.80;;
22026;SDS011;11177;50.966;10.070;2023-03-02T07:43:32;18.13;;;9.05;;
22026;SDS011;11177;50.966;10.070;2023-03-02T07:46:01;16.38;;;9.30;;
22026;SDS011;11177;50.966;10.070;2023-03-02T07:48:30;19.10;;;10.38;;
22026;SDS011;11177;50.966;10.070;2023-03-02T07:50:58;21.35;;;10.10;;
22026;SDS011;11177;50.966;10.070;2023-03-02T07:53:28;23.55;;;10.32;;
22026;SDS011;11177;50.966;10.070;2023-03-02T07:55:55;21.15;;;10.45;;
22026;SDS011;11177;50.966;10.070;2023-03-02T07:58:21;18.92;;;9.85;;
22026;SDS011;11177;50.966;10.070;2023-03-02T08:00:49;21.17;;;10.32;;
22026;SDS011;11177;50.966;10.070;2023-03-02T08:03:16;21.92;;;10.85;;
22026;SDS011;11177;50.966;10.070;2023-03-02T08:05:43;20.48;;;10.80;;
22026;SDS011;11177;50.966;10.070;2023-03-02T08:08:10;22.45;;;10.73;;
22026;SDS011;11177;50.966;10.070;2023-03-02T08:10:37;23.05;;;10.65;;
22026;SDS011;11177;50.966;10.070;2023-03-02T08:13:04;18.98;;;10.00;;
22026;SDS011;11177;50.966;10.070;2023-03-02T08:15:30;20.02;;;10.30;;
22026;SDS011;11177;50.966;10.070;2023-03-02T08:17:57;21.52;;;11.02;;
22026;SDS011;11177;50.966;10.070;2023-03-02T08:20:24;22.13;;;11.05;;
22026;SDS011;11177;50.966;10.070;2023-03-02T08:22:51;26.25;;;12.18;;
22026;SDS011;11177;50.966;10.070;2023-03-02T08:25:18;21.05;;;10.55;;
22026;SDS011;11177;50.966;10.070;2023-03-02T08:27:44;24.27;;;11.82;;
22026;SDS011;11177;50.966;10.070;2023-03-02T08:30:11;27.88;;;11.90;;
22026;SDS011;11177;50.966;10.070;2023-03-02T08:32:39;26.08;;;11.63;;
22026;SDS011;11177;50.966;10.070;2023-03-02T08:35:05;26.92;;;12.77;;
22026;SDS011;11177;50.966;10.070;2023-03-02T08:37:33;22.83;;;10.80;;
22026;SDS011;11177;50.966;10.070;2023-03-02T08:40:00;24.17;;;11.63;;
22026;SDS011;11177;50.966;10.070;2023-03-02T08:42:30;24.25;;;11.75;;
22026;SDS011;11177;50.966;10.070;2023-03-02T08:44:57;21.95;;;11.32;;
22026;SDS011;11177;50.966;10.070;2023-03-02T08:47:24;24.92;;;12.73;;
22026;SDS011;11177;50.966;10.070;2023-03-02T08:49:50;19.25;;;10.25;;
22026;SDS011;11177;50.966;10.070;2023-03-02T08:52:17;22.65;;;11.20;;
22026;SDS011;11177;50.966;10.070;2023-03-02T08:54:44;23.20;;;11.70;;
22026;SDS011;11177;50.966;10.070;2023-03-02T08:57:11;22.60;;;11.30;;
22026;SDS011;11177;50.966;10.070;2023-03-02T08:59:38;24.48;;;11.95;;
22026;SDS011;11177;50.966;10.070;2023-03-02T09:02:05;25.65;;;11.57;;
22026;SDS011;11177;50.966;10.070;2023-03-02T09:04:32;24.33;;;12.00;;
22026;SDS011;11177;50.966;10.070;2023-03-02T09:06:59;23.80;;;11.75;;
22026;SDS011;11177;50.966;10.070;2023-03-02T09:09:26;22.52;;;11.55;;
22026;SDS011;11177;50.966;10.070;2023-03-02T09:11:53;21.25;;;11.73;;
22026;SDS011;11177;50.966;10.070;2023-03-02T09:14:19;23.08;;;11.85;;
22026;SDS011;11177;50.966;10.070;2023-03-02T09:16:46;22.63;;;11.73;;
22026;SDS011;11177;50.966;10.070;2023-03-02T09:19:13;21.90;;;11.50;;
22026;SDS011;11177;50.966;10.070;2023-03-02T09:21:40;23.33;;;11.95;;
22026;SDS011;11177;50.966;10.070;2023-03-02T09:24:07;23.88;;;11.70;;
22026;SDS011;11177;50.966;10.070;2023-03-02T09:26:33;25.38;;;12.25;;
22026;SDS011;11177;50.966;10.070;2023-03-02T09:29:01;25.27;;;11.77;;
22026;SDS011;11177;50.966;10.070;2023-03-02T09:31:28;21.92;;;11.85;;
22026;SDS011;11177;50.966;10.070;2023-03-02T09:33:55;26.75;;;12.27;;
22026;SDS011;11177;50.966;10.070;2023-03-02T09:36:23;23.90;;;12.02;;
22026;SDS011;11177;50.966;10.070;2023-03-02T09:38:50;23.52;;;11.82;;
22026;SDS011;11177;50.966;10.070;2023-03-02T09:47:12;20.48;;;11.77;;
22026;SDS011;11177;50.966;10.070;2023-03-02T09:53:19;26.02;;;12.80;;
22026;SDS011;11177;50.966;10.070;2023-03-02T09:55:52;22.85;;;12.43;;
22026;SDS011;11177;50.966;10.070;2023-03-02T09:58:20;26.08;;;12.13;;
22026;SDS011;11177;50.966;10.070;2023-03-02T10:00:49;20.75;;;11.95;;
22026;SDS011;11177;50.966;10.070;2023-03-02T10:03:17;24.73;;;12.30;;
22026;SDS011;11177;50.966;10.070;2023-03-02T10:05:50;24.65;;;12.65;;
22026;SDS011;11177;50.966;10.070;2023-03-02T10:08:21;24.77;;;12.05;;
22026;SDS011;11177;50.966;10.070;2023-03-02T10:10:53;22.17;;;11.95;;
22026;SDS011;11177;50.966;10.070;2023-03-02T10:13:32;21.27;;;11.98;;
22026;SDS011;11177;50.966;10.070;2023-03-02T10:16:18;21.50;;;12.20;;
22026;SDS011;11177;50.966;10.070;2023-03-02T10:19:08;25.15;;;11.95;;
22026;SDS011;11177;50.966;10.070;2023-03-02T10:21:39;23.17;;;11.30;;
22026;SDS011;11177;50.966;10.070;2023-03-02T10:24:14;21.23;;;11.55;;
22026;SDS011;11177;50.966;10.070;2023-03-02T10:30:18;19.10;;;10.55;;
22026;SDS011;11177;50.966;10.070;2023-03-02T10:33:02;21.10;;;10.68;;
22026;SDS011;11177;50.966;10.070;2023-03-02T10:35:33;20.83;;;9.80;;
22026;SDS011;11177;50.966;10.070;2023-03-02T10:38:15;19.10;;;10.05;;
22026;SDS011;11177;50.966;10.070;2023-03-02T10:40:48;17.73;;;9.32;;
22026;SDS011;11177;50.966;10.070;2023-03-02T10:43:28;20.77;;;10.07;;
22026;SDS011;11177;50.966;10.070;2023-03-02T10:46:04;25.98;;;11.23;;
22026;SDS011;11177;50.966;10.070;2023-03-02T10:48:53;20.15;;;9.93;;
22026;SDS011;11177;50.966;10.070;2023-03-02T10:51:31;19.20;;;10.38;;
22026;SDS011;11177;50.966;10.070;2023-03-02T10:54:19;17.55;;;10.15;;
22026;SDS011;11177;50.966;10.070;2023-03-02T10:56:49;17.25;;;9.55;;
22026;SDS011;11177;50.966;10.070;2023-03-02T10:59:26;16.08;;;8.70;;
22026;SDS011;11177;50.966;10.070;2023-03-02T11:02:15;15.52;;;8.48;;
22026;SDS011;11177;50.966;10.070;2023-03-02T11:04:52;16.98;;;8.55;;
22026;SDS011;11177;50.966;10.070;2023-03-02T11:07:25;14.75;;;7.38;;
22026;SDS011;11177;50.966;10.070;2023-03-02T11:10:01;14.68;;;7.97;;
22026;SDS011;11177;50.966;10.070;2023-03-02T11:12:30;13.70;;;7.60;;
22026;SDS011;11177;50.966;10.070;2023-03-02T11:17:45;15.65;;;7.90;;
22026;SDS011;11177;50.966;10.070;2023-03-02T11:20:15;13.57;;;7.55;;
22026;SDS011;11177;50.966;10.070;2023-03-02T11:22:51;12.27;;;6.70;;
22026;SDS011;11177;50.966;10.070;2023-03-02T11:25:27;27.58;;;7.25;;
22026;SDS011;11177;50.966;10.070;2023-03-02T11:28:01;12.57;;;6.75;;
22026;SDS011;11177;50.966;10.070;2023-03-02T11:30:34;13.32;;;7.22;;
22026;SDS011;11177;50.966;10.070;2023-03-02T11:33:08;12.82;;;7.25;;
22026;SDS011;11177;50.966;10.070;2023-03-02T11:35:42;11.57;;;6.47;;
22026;SDS011;11177;50.966;10.070;2023-03-02T11:38:26;16.30;;;7.85;;
22026;SDS011;11177;50.966;10.070;2023-03-02T11:40:56;14.32;;;7.70;;
22026;SDS011;11177;50.966;10.070;2023-03-02T11:43:25;13.27;;;6.70;;
22026;SDS011;11177;50.966;10.070;2023-03-02T11:45:59;14.30;;;7.07;;
22026;SDS011;11177;50.966;10.070;2023-03-02T11:48:37;14.93;;;7.25;;
22026;SDS011;11177;50.966;10.070;2023-03-02T11:51:11;12.98;;;6.80;;
22026;SDS011;11177;50.966;10.070;2023-03-02T11:53:44;12.20;;;6.40;;
22026;SDS011;11177;50.966;10.070;2023-03-02T11:56:13;11.98;;;6.50;;
22026;SDS011;11177;50.966;10.070;2023-03-02T11:58:41;11.52;;;6.22;;
22026;SDS011;11177;50.966;10.070;2023-03-02T12:01:12;11.07;;;6.63;;
22026;SDS011;11177;50.966;10.070;2023-03-02T12:03:49;10.30;;;6.25;;
22026;SDS011;11177;50.966;10.070;2023-03-02T12:06:28;10.80;;;6.20;;
22026;SDS011;11177;50.966;10.070;2023-03-02T12:11:58;10.13;;;5.90;;
22026;SDS011;11177;50.966;10.070;2023-03-02T12:14:44;11.32;;;5.80;;
22026;SDS011;11177;50.966;10.070;2023-03-02T12:17:19;12.18;;;5.88;;
22026;SDS011;11177;50.966;10.070;2023-03-02T12:19:48;11.27;;;6.13;;
22026;SDS011;11177;50.966;10.070;2023-03-02T12:22:27;12.40;;;6.50;;
22026;SDS011;11177;50.966;10.070;2023-03-02T12:25:04;15.93;;;7.68;;
22026;SDS011;11177;50.966;10.070;2023-03-02T12:27:52;11.85;;;6.18;;
22026;SDS011;11177;50.966;10.070;2023-03-02T12:30:21;16.77;;;6.57;;
22026;SDS011;11177;50.966;10.070;2023-03-02T12:33:14;12.50;;;6.57;;
22026;SDS011;11177;50.966;10.070;2023-03-02T12:35:44;10.50;;;6.88;;
22026;SDS011;11177;50.966;10.070;2023-03-02T12:38:17;13.70;;;7.35;;
22026;SDS011;11177;50.966;10.070;2023-03-02T12:44:06;11.98;;;6.55;;
22026;SDS011;11177;50.966;10.070;2023-03-02T12:46:45;11.50;;;6.60;;
22026;SDS011;11177;50.966;10.070;2023-03-02T12:52:31;12.10;;;6.70;;
22026;SDS011;11177;50.966;10.070;2023-03-02T12:55:00;11.20;;;6.30;;
22026;SDS011;11177;50.966;10.070;2023-03-02T12:57:29;10.88;;;6.68;;
22026;SDS011;11177;50.966;10.070;2023-03-02T12:59:57;11.32;;;6.55;;
22026;SDS011;11177;50.966;10.070;2023-03-02T13:02:27;13.27;;;6.85;;
22026;SDS011;11177;50.966;10.070;2023-03-02T13:04:56;11.18;;;6.57;;
22026;SDS011;11177;50.966;10.070;2023-03-02T13:07:32;12.57;;;7.20;;
22026;SDS011;11177;50.966;10.070;2023-03-02T13:10:02;10.65;;;6.82;;
22026;SDS011;11177;50.966;10.070;2023-03-02T13:12:35;10.65;;;6.35;;
22026;SDS011;11177;50.966;10.070;2023-03-02T13:15:02;9.48;;;6.20;;
22026;SDS011;11177;50.966;10.070;2023-03-02T13:17:30;12.88;;;7.05;;
22026;SDS011;11177;50.966;10.070;2023-03-02T13:19:58;14.13;;;7.45;;
22026;SDS011;11177;50.966;10.070;2023-03-02T13:22:26;14.30;;;8.10;;
22026;SDS011;11177;50.966;10.070;2023-03-02T13:24:55;12.32;;;7.45;;
22026;SDS011;11177;50.966;10.070;2023-03-02T13:27:31;10.45;;;6.28;;
22026;SDS011;11177;50.966;10.070;2023-03-02T13:33:00;11.93;;;6.32;;
22026;SDS011;11177;50.966;10.070;2023-03-02T13:35:29;10.80;;;6.40;;
22026;SDS011;11177;50.966;10.070;2023-03-02T13:38:04;16.92;;;9.90;;
22026;SDS011;11177;50.966;10.070;2023-03-02T13:40:39;16.25;;;7.70;;
22026;SDS011;11177;50.966;10.070;2023-03-02T13:43:29;13.20;;;6.57;;
22026;SDS011;11177;50.966;10.070;2023-03-02T13:46:01;11.38;;;6.10;;
22026;SDS011;11177;50.966;10.070;2023-03-02T13:49:00;10.50;;;6.07;;
22026;SDS011;11177;50.966;10.070;2023-03-02T13:51:39;12.85;;;6.47;;
22026;SDS011;11177;50.966;10.070;2023-03-02T13:54:17;11.95;;;6.10;;
22026;SDS011;11177;50.966;10.070;2023-03-02T13:56:51;11.18;;;6.30;;
22026;SDS011;11177;50.966;10.070;2023-03-02T13:59:20;10.32;;;6.10;;
22026;SDS011;11177;50.966;10.070;2023-03-02T14:01:47;12.77;;;6.43;;
22026;SDS011;11177;50.966;10.070;2023-03-02T14:04:14;11.35;;;6.72;;
22026;SDS011;11177;50.966;10.070;2023-03-02T14:06:44;12.07;;;6.43;;
22026;SDS011;11177;50.966;10.070;2023-03-02T14:11:45;9.73;;;5.97;;
22026;SDS011;11177;50.966;10.070;2023-03-02T14:14:15;10.52;;;6.03;;
22026;SDS011;11177;50.966;10.070;2023-03-02T14:16:43;11.48;;;6.13;;
22026;SDS011;11177;50.966;10.070;2023-03-02T14:19:13;9.73;;;5.93;;
22026;SDS011;11177;50.966;10.070;2023-03-02T14:21:44;11.60;;;6.50;;
22026;SDS011;11177;50.966;10.070;2023-03-02T14:24:11;12.60;;;6.80;;
22026;SDS011;11177;50.966;10.070;2023-03-02T14:26:39;12.45;;;6.45;;
22026;SDS011;11177;50.966;10.070;2023-03-02T14:29:19;11.77;;;6.57;;
22026;SDS011;11177;50.966;10.070;2023-03-02T14:31:52;11.32;;;5.85;;
22026;SDS011;11177;50.966;10.070;2023-03-02T14:34:19;13.43;;;6.07;;
22026;SDS011;11177;50.966;10.070;2023-03-02T14:36:48;11.27;;;5.80;;
22026;SDS011;11177;50.966;10.070;2023-03-02T14:39:34;10.40;;;5.47;;
22026;SDS011;11177;50.966;10.070;2023-03-02T14:42:03;12.32;;;5.57;;
22026;SDS011;11177;50.966;10.070;2023-03-02T14:44:40;9.93;;;5.78;;
22026;SDS011;11177;50.966;10.070;2023-03-02T14:47:07;16.45;;;8.00;;
22026;SDS011;11177;50.966;10.070;2023-03-02T14:49:35;9.77;;;5.68;;
22026;SDS011;11177;50.966;10.070;2023-03-02T14:52:07;16.20;;;6.45;;
22026;SDS011;11177;50.966;10.070;2023-03-02T14:54:56;8.93;;;5.57;;
22026;SDS011;11177;50.966;10.070;2023-03-02T14:57:26;9.05;;;5.57;;
22026;SDS011;11177;50.966;10.070;2023-03-02T14:59:54;8.40;;;5.30;;
22026;SDS011;11177;50.966;10.070;2023-03-02T15:02:22;11.07;;;5.72;;
22026;SDS011;11177;50.966;10.070;2023-03-02T15:04:52;7.97;;;4.90;;
22026;SDS011;11177;50.966;10.070;2023-03-02T15:07:23;39.90;;;16.45;;
22026;SDS011;11177;50.966;10.070;2023-03-02T15:09:51;14.20;;;6.95;;